createdAt,value
2019-04-07T00:02:09.993Z,9.75
2019-04-07T00:04:39.665Z,9.73
2019-04-07T00:07:09.324Z,9.70
2019-04-07T00:09:40.082Z,9.69
2019-04-07T00:12:09.534Z,9.66
2019-04-07T00:14:39.160Z,9.68
2019-04-07T00:17:09.342Z,9.64
2019-04-07T00:19:38.906Z,9.61
2019-04-07T00:22:08.297Z,9.62
2019-04-07T00:24:37.719Z,9.63
2019-04-07T00:27:07.622Z,9.59
2019-04-07T00:29:36.887Z,9.57
2019-04-07T00:32:06.165Z,9.53
2019-04-07T00:34:35.863Z,9.51
2019-04-07T00:37:05.548Z,9.50
2019-04-07T00:39:34.801Z,9.44
2019-04-07T00:42:03.876Z,9.38
2019-04-07T00:44:33.555Z,9.35
2019-04-07T00:47:04.090Z,9.33
2019-04-07T00:49:33.393Z,9.29
2019-04-07T00:52:04.928Z,9.26
2019-04-07T00:54:34.759Z,9.28
2019-04-07T00:57:04.440Z,9.27
2019-04-07T00:59:35.186Z,9.24
2019-04-07T01:02:05.803Z,9.22
2019-04-07T01:04:35.451Z,9.20
2019-04-07T01:07:04.842Z,9.11
2019-04-07T01:09:35.284Z,9.12
2019-04-07T01:12:04.988Z,9.08
2019-04-07T01:14:34.293Z,9.08
2019-04-07T01:17:03.674Z,9.04
2019-04-07T01:19:33.296Z,9.02
2019-04-07T01:22:02.419Z,9.00
2019-04-07T01:24:31.865Z,8.98
2019-04-07T01:27:02.825Z,8.96
2019-04-07T01:29:32.174Z,8.95
2019-04-07T01:32:02.178Z,8.95
2019-04-07T01:34:32.171Z,8.93
2019-04-07T01:37:01.307Z,8.88
2019-04-07T01:39:30.730Z,8.85
2019-04-07T01:42:25.492Z,8.83
2019-04-07T01:45:29.165Z,8.81
2019-04-07T01:48:20.439Z,8.81
2019-04-07T01:51:13.623Z,8.79
2019-04-07T01:53:54.966Z,8.76
2019-04-07T01:56:44.062Z,8.73
2019-04-07T01:59:26.547Z,8.68
2019-04-07T02:02:27.254Z,8.64
2019-04-07T02:05:19.079Z,8.57
2019-04-07T02:07:55.723Z,8.47
2019-04-07T02:10:42.994Z,8.40
2019-04-07T02:13:31.328Z,8.34
2019-04-07T02:16:06.436Z,8.29
2019-04-07T02:18:57.617Z,8.22
2019-04-07T02:21:41.799Z,8.14
2019-04-07T02:24:23.501Z,8.05
2019-04-07T02:27:18.215Z,7.98
2019-04-07T02:30:13.054Z,7.92
2019-04-07T02:33:05.089Z,7.88
2019-04-07T02:35:46.551Z,7.81
2019-04-07T02:38:42.302Z,7.75
2019-04-07T02:41:24.507Z,7.73
2019-04-07T02:44:10.839Z,7.72
2019-04-07T02:46:57.571Z,7.73
2019-04-07T02:49:35.953Z,7.75
2019-04-07T02:52:28.130Z,7.72
2019-04-07T02:55:32.216Z,7.73
2019-04-07T02:58:20.273Z,7.72
2019-04-07T03:01:07.926Z,7.65
2019-04-07T03:03:55.557Z,7.63
2019-04-07T03:06:47.759Z,7.59
2019-04-07T03:09:20.545Z,7.51
2019-04-07T03:12:24.012Z,7.48
2019-04-07T03:15:24.907Z,7.44
2019-04-07T03:18:12.797Z,7.41
2019-04-07T03:21:08.349Z,7.38
2019-04-07T03:23:56.578Z,7.35
2019-04-07T03:26:58.246Z,7.29
2019-04-07T03:29:45.264Z,7.25
2019-04-07T03:32:38.844Z,7.19
2019-04-07T03:35:35.077Z,7.17
2019-04-07T03:38:36.810Z,7.17
2019-04-07T03:41:26.113Z,7.14
2019-04-07T03:44:01.328Z,7.09
2019-04-07T03:46:49.809Z,7.09
2019-04-07T03:49:23.833Z,7.08
2019-04-07T03:52:18.028Z,7.11
2019-04-07T03:55:09.555Z,7.11
2019-04-07T03:58:08.035Z,7.11
2019-04-07T04:01:35.516Z,7.12
2019-04-07T04:04:24.947Z,7.11
2019-04-07T04:07:20.628Z,7.10
2019-04-07T04:09:59.897Z,7.09
2019-04-07T04:12:46.916Z,7.09
2019-04-07T04:15:29.843Z,7.08
2019-04-07T04:18:01.191Z,7.09
2019-04-07T04:20:30.758Z,7.13
2019-04-07T04:23:00.073Z,7.10
2019-04-07T04:25:30.264Z,7.07
2019-04-07T04:27:59.918Z,7.05
2019-04-07T04:30:29.948Z,7.04
2019-04-07T04:32:59.784Z,7.03
2019-04-07T04:35:32.362Z,6.96
2019-04-07T04:38:02.257Z,6.98
2019-04-07T04:40:32.312Z,7.01
2019-04-07T04:43:03.304Z,7.00
2019-04-07T04:45:33.802Z,6.98
2019-04-07T04:48:03.042Z,6.96
2019-04-07T04:50:32.242Z,6.92
2019-04-07T04:53:02.049Z,6.94
2019-04-07T04:55:31.898Z,6.90
2019-04-07T04:58:02.242Z,6.90
2019-04-07T05:00:32.692Z,6.86
2019-04-07T05:03:02.826Z,6.85
2019-04-07T05:05:32.927Z,6.84
2019-04-07T05:08:05.115Z,6.80
2019-04-07T05:10:33.145Z,6.79
2019-04-07T05:13:02.794Z,6.79
2019-04-07T05:15:35.121Z,6.81
2019-04-07T05:18:06.417Z,6.81
2019-04-07T05:20:36.000Z,6.80
2019-04-07T05:23:05.310Z,6.79
2019-04-07T05:25:34.947Z,6.79
2019-04-07T05:28:07.936Z,6.83
2019-04-07T05:30:38.087Z,6.86
2019-04-07T05:33:07.529Z,6.87
2019-04-07T05:35:37.859Z,6.91
2019-04-07T05:38:08.354Z,6.98
2019-04-07T05:40:38.684Z,7.07
2019-04-07T05:43:07.790Z,7.16
2019-04-07T05:45:37.687Z,7.27
2019-04-07T05:48:08.163Z,7.41
2019-04-07T05:50:38.582Z,7.53
2019-04-07T05:53:12.125Z,7.63
2019-04-07T05:55:42.585Z,7.74
2019-04-07T05:58:15.276Z,7.89
2019-04-07T06:00:45.755Z,7.97
2019-04-07T06:03:15.382Z,8.12
2019-04-07T06:05:50.038Z,8.31
2019-04-07T06:08:25.829Z,8.42
2019-04-07T06:10:47.198Z,8.57
2019-04-07T06:13:17.495Z,8.68
2019-04-07T06:15:48.581Z,8.79
2019-04-07T06:18:18.478Z,8.89
2019-04-07T06:20:48.532Z,9.08
2019-04-07T06:23:22.749Z,9.18
2019-04-07T06:25:50.123Z,9.30
2019-04-07T06:28:19.520Z,9.33
2019-04-07T06:30:49.542Z,9.37
2019-04-07T06:33:19.932Z,9.42
2019-04-07T06:35:49.828Z,9.53
2019-04-07T06:38:30.322Z,9.56
2019-04-07T06:40:50.805Z,9.70
2019-04-07T06:43:22.311Z,9.81
2019-04-07T06:45:58.974Z,9.94
2019-04-07T06:48:28.867Z,10.06
2019-04-07T06:51:09.569Z,10.24
2019-04-07T06:53:59.004Z,10.34
2019-04-07T06:56:38.667Z,10.40
2019-04-07T06:59:18.580Z,10.58
2019-04-07T07:02:07.311Z,10.53
2019-04-07T07:05:01.788Z,10.55
2019-04-07T07:07:42.519Z,10.72
2019-04-07T07:10:35.555Z,10.72
2019-04-07T07:13:11.812Z,10.92
2019-04-07T07:16:00.470Z,11.13
2019-04-07T07:18:54.717Z,11.38
2019-04-07T07:21:38.752Z,11.53
2019-04-07T07:24:06.033Z,11.70
2019-04-07T07:26:37.172Z,11.78
2019-04-07T07:29:06.829Z,11.88
2019-04-07T07:31:36.914Z,12.04
2019-04-07T07:34:09.382Z,12.21
2019-04-07T07:36:39.294Z,12.46
2019-04-07T07:39:11.790Z,12.61
2019-04-07T07:41:41.298Z,12.65
2019-04-07T07:44:13.521Z,12.82
2019-04-07T07:46:44.448Z,13.13
2019-04-07T07:49:14.773Z,13.25
2019-04-07T07:51:47.359Z,13.36
2019-04-07T07:54:17.234Z,13.43
2019-04-07T07:56:48.595Z,13.55
2019-04-07T07:59:20.179Z,13.75
2019-04-07T08:01:53.463Z,13.78
2019-04-07T08:04:26.956Z,13.97
2019-04-07T08:06:57.856Z,14.09
2019-04-07T08:09:27.298Z,14.14
2019-04-07T08:11:57.784Z,14.27
2019-04-07T08:14:27.325Z,14.51
2019-04-07T08:17:02.473Z,14.64
2019-04-07T08:19:32.994Z,14.88
2019-04-07T08:22:03.050Z,15.21
2019-04-07T08:24:32.777Z,15.37
2019-04-07T08:27:04.030Z,15.45
2019-04-07T08:29:37.147Z,15.47
2019-04-07T08:32:06.619Z,15.30
2019-04-07T08:34:37.182Z,15.41
2019-04-07T08:37:09.566Z,15.69
2019-04-07T08:40:16.976Z,15.86
2019-04-07T08:42:49.114Z,16.18
2019-04-07T08:45:18.945Z,16.21
2019-04-07T08:47:52.476Z,16.30
2019-04-07T08:50:22.785Z,16.57
2019-04-07T08:53:21.253Z,16.78
2019-04-07T08:55:54.403Z,16.76
2019-04-07T08:58:25.776Z,16.88
2019-04-07T09:00:53.988Z,16.77
2019-04-07T09:03:23.706Z,16.98
2019-04-07T09:05:56.458Z,17.18
2019-04-07T09:08:24.059Z,17.30
2019-04-07T09:11:08.986Z,17.67
2019-04-07T09:13:38.492Z,17.78
2019-04-07T09:16:35.892Z,17.80
2019-04-07T09:19:36.806Z,18.02
2019-04-07T09:22:40.763Z,17.89
2019-04-07T09:25:21.412Z,18.08
2019-04-07T09:27:57.204Z,18.17
2019-04-07T09:30:48.415Z,18.40
2019-04-07T09:33:36.949Z,18.69
2019-04-07T09:36:16.945Z,18.56
2019-04-07T09:39:12.351Z,18.67
2019-04-07T09:41:58.715Z,18.77
2019-04-07T09:44:55.231Z,19.02
2019-04-07T09:47:46.821Z,19.19
2019-04-07T09:50:36.390Z,19.29
2019-04-07T09:53:18.890Z,19.51
2019-04-07T09:56:05.752Z,19.51
2019-04-07T09:58:54.631Z,19.46
2019-04-07T10:01:36.404Z,19.74
2019-04-07T10:04:31.249Z,20.17
2019-04-07T10:07:09.640Z,20.15
2019-04-07T10:10:12.957Z,20.42
2019-04-07T10:13:00.953Z,20.67
2019-04-07T10:15:47.808Z,20.69
2019-04-07T10:18:36.727Z,20.81
2019-04-07T10:21:24.085Z,21.17
2019-04-07T10:24:00.742Z,21.20
2019-04-07T10:26:47.346Z,21.43
2019-04-07T10:29:35.324Z,21.34
2019-04-07T10:32:27.072Z,20.68
2019-04-07T10:35:19.363Z,20.85
2019-04-07T10:37:58.166Z,20.70
2019-04-07T10:40:50.363Z,21.37
2019-04-07T10:43:41.298Z,21.79
2019-04-07T10:46:22.586Z,21.93
2019-04-07T10:49:04.655Z,22.28
2019-04-07T10:51:53.391Z,22.18
2019-04-07T10:54:44.798Z,21.90
2019-04-07T10:57:48.150Z,22.25
2019-04-07T11:00:51.545Z,21.76
2019-04-07T11:03:39.420Z,22.13
2019-04-07T11:06:28.404Z,22.52
2019-04-07T11:09:13.281Z,22.45
2019-04-07T11:11:59.981Z,22.26
2019-04-07T11:14:51.694Z,22.11
2019-04-07T11:17:43.676Z,22.25
2019-04-07T11:20:41.064Z,22.58
2019-04-07T11:23:35.835Z,22.83
2019-04-07T11:26:27.397Z,22.70
2019-04-07T11:29:07.116Z,22.51
2019-04-07T11:32:05.509Z,22.35
2019-04-07T11:35:00.616Z,22.01
2019-04-07T11:37:51.818Z,21.66
2019-04-07T11:40:51.190Z,21.41
2019-04-07T11:43:44.467Z,21.43
2019-04-07T11:46:51.932Z,21.13
2019-04-07T11:49:46.210Z,20.96
2019-04-07T11:52:27.833Z,21.25
2019-04-07T11:55:06.425Z,21.27
2019-04-07T11:58:13.522Z,21.15
2019-04-07T12:00:53.894Z,21.11
2019-04-07T12:03:57.997Z,20.77
2019-04-07T12:07:07.792Z,20.42
2019-04-07T12:09:55.244Z,20.71
2019-04-07T12:12:32.968Z,20.76
2019-04-07T12:15:36.928Z,20.59
2019-04-07T12:18:23.741Z,20.54
2019-04-07T12:21:05.247Z,20.50
2019-04-07T12:23:52.831Z,20.29
2019-04-07T12:26:43.614Z,19.87
2019-04-07T12:29:23.262Z,19.57
2019-04-07T12:32:10.831Z,19.08
2019-04-07T12:34:57.845Z,19.03
2019-04-07T12:37:42.026Z,18.97
2019-04-07T12:40:32.583Z,18.85
2019-04-07T12:43:33.930Z,18.75
2019-04-07T12:46:19.318Z,18.77
2019-04-07T12:49:09.148Z,18.70
2019-04-07T12:52:05.835Z,18.63
2019-04-07T12:55:00.422Z,18.66
2019-04-07T12:57:52.097Z,18.60
2019-04-07T13:00:56.112Z,18.61
2019-04-07T13:03:37.441Z,18.63
2019-04-07T13:06:17.895Z,18.64
2019-04-07T13:09:07.105Z,18.62
2019-04-07T13:11:45.812Z,18.65
2019-04-07T13:14:35.275Z,18.59
2019-04-07T13:17:22.009Z,18.54
2019-04-07T13:19:59.072Z,18.57
2019-04-07T13:22:42.486Z,18.65
2019-04-07T13:25:30.231Z,18.68
2019-04-07T13:28:22.841Z,18.72
2019-04-07T13:31:13.505Z,18.70
2019-04-07T13:34:01.196Z,18.81
2019-04-07T13:36:47.714Z,18.75
2019-04-07T13:39:48.357Z,18.73
2019-04-07T13:42:43.113Z,18.75
2019-04-07T13:45:37.172Z,18.69
2019-04-07T13:48:33.343Z,18.54
2019-04-07T13:51:21.543Z,18.42
2019-04-07T13:54:11.097Z,18.41
2019-04-07T13:56:59.080Z,18.40
2019-04-07T13:59:48.821Z,18.35
2019-04-07T14:02:31.576Z,18.22
2019-04-07T14:05:25.959Z,18.22
2019-04-07T14:08:07.081Z,18.29
2019-04-07T14:10:47.182Z,18.47
2019-04-07T14:13:26.822Z,18.64
2019-04-07T14:16:16.001Z,18.71
2019-04-07T14:19:13.852Z,18.72
2019-04-07T14:22:11.271Z,18.81
2019-04-07T14:24:49.921Z,18.74
2019-04-07T14:27:38.416Z,18.73
2019-04-07T14:30:19.219Z,18.64
2019-04-07T14:33:00.070Z,18.55
2019-04-07T14:36:04.258Z,18.55
2019-04-07T14:38:45.555Z,18.44
2019-04-07T14:41:41.162Z,18.44
2019-04-07T14:44:22.557Z,18.38
2019-04-07T14:47:10.790Z,18.38
2019-04-07T14:50:01.953Z,18.33
2019-04-07T14:52:44.761Z,18.33
2019-04-07T14:55:22.623Z,18.33
2019-04-07T14:58:17.520Z,18.30
2019-04-07T15:01:04.630Z,18.33
2019-04-07T15:03:33.294Z,18.34
2019-04-07T15:06:49.175Z,18.28
2019-04-07T15:09:25.095Z,18.13
2019-04-07T15:12:05.216Z,18.13
2019-04-07T15:14:33.857Z,18.13
2019-04-07T15:17:03.629Z,18.12
2019-04-07T15:19:33.932Z,18.12
2019-04-07T15:22:04.558Z,18.09
2019-04-07T15:24:35.867Z,18.13
2019-04-07T15:27:06.528Z,18.13
2019-04-07T15:29:41.359Z,18.11
2019-04-07T15:32:07.517Z,18.13
2019-04-07T15:34:39.494Z,18.13
2019-04-07T15:37:08.367Z,18.14
2019-04-07T15:39:38.373Z,18.18
2019-04-07T15:42:09.312Z,18.14
2019-04-07T15:44:39.647Z,18.14
2019-04-07T15:47:09.486Z,18.11
2019-04-07T15:49:38.790Z,18.05
2019-04-07T15:52:11.263Z,17.87
2019-04-07T15:54:40.368Z,17.87
2019-04-07T15:57:10.062Z,17.81
2019-04-07T15:59:42.402Z,17.76
2019-04-07T16:02:12.460Z,17.72
2019-04-07T16:04:42.512Z,17.63
2019-04-07T16:07:12.211Z,17.58
2019-04-07T16:09:51.059Z,17.52
2019-04-07T16:12:13.485Z,17.49
2019-04-07T16:14:46.496Z,17.48
2019-04-07T16:17:14.607Z,17.43
2019-04-07T16:19:50.486Z,17.37
2019-04-07T16:22:15.663Z,17.18
2019-04-07T16:24:47.516Z,17.18
2019-04-07T16:27:39.221Z,17.17
2019-04-07T16:30:08.652Z,17.11
2019-04-07T16:32:44.951Z,17.10
2019-04-07T16:35:18.306Z,17.05
2019-04-07T16:37:48.219Z,17.02
2019-04-07T16:40:21.909Z,16.95
2019-04-07T16:43:04.443Z,16.93
2019-04-07T16:45:22.366Z,16.88
2019-04-07T16:47:51.922Z,16.80
2019-04-07T16:50:21.556Z,16.77
2019-04-07T16:52:51.246Z,16.71
2019-04-07T16:55:37.811Z,16.65
2019-04-07T16:58:09.534Z,16.62
2019-04-07T17:00:40.029Z,16.58
2019-04-07T17:03:13.132Z,16.52
2019-04-07T17:05:43.055Z,16.49
2019-04-07T17:08:12.925Z,15.86
2019-04-07T17:10:42.575Z,16.40
2019-04-07T17:13:18.678Z,16.36
2019-04-07T17:15:45.427Z,16.31
2019-04-07T17:18:41.163Z,16.29
2019-04-07T17:21:15.994Z,16.26
2019-04-07T17:23:46.244Z,16.20
2019-04-07T17:26:16.557Z,16.18
2019-04-07T17:28:48.440Z,16.14
2019-04-07T17:31:17.670Z,16.11
2019-04-07T17:33:47.167Z,16.09
2019-04-07T17:36:20.101Z,16.03
2019-04-07T17:39:09.988Z,15.97
2019-04-07T17:41:39.290Z,15.90
2019-04-07T17:44:24.497Z,15.81
2019-04-07T17:47:09.772Z,15.73
2019-04-07T17:49:52.401Z,15.64
2019-04-07T17:52:44.177Z,15.58
2019-04-07T17:55:41.793Z,15.49
2019-04-07T17:58:29.853Z,15.40
2019-04-07T18:01:20.600Z,15.33
2019-04-07T18:04:05.722Z,15.21
2019-04-07T18:06:41.840Z,15.14
2019-04-07T18:09:37.247Z,15.03
2019-04-07T18:12:16.367Z,14.94
2019-04-07T18:15:09.865Z,14.84
2019-04-07T18:17:49.753Z,14.79
2019-04-07T18:20:29.403Z,14.67
2019-04-07T18:23:26.458Z,14.59
2019-04-07T18:26:04.981Z,14.51
2019-04-07T18:28:52.707Z,14.44
2019-04-07T18:31:42.054Z,14.40
2019-04-07T18:34:42.987Z,14.31
2019-04-07T18:37:32.330Z,14.24
2019-04-07T18:40:08.944Z,14.17
2019-04-07T18:42:57.750Z,14.08
2019-04-07T18:45:38.491Z,14.02
2019-04-07T18:48:42.337Z,13.97
2019-04-07T18:51:29.382Z,13.92
2019-04-07T18:54:23.562Z,13.83
2019-04-07T18:57:13.977Z,13.75
2019-04-07T19:00:12.642Z,13.65
2019-04-07T19:03:09.338Z,13.58
2019-04-07T19:05:52.799Z,13.48
2019-04-07T19:08:52.729Z,13.41
2019-04-07T19:11:38.379Z,13.34
2019-04-07T19:14:41.964Z,13.25
2019-04-07T19:17:05.040Z,13.20
2019-04-07T19:19:59.479Z,13.13
2019-04-07T19:22:49.083Z,13.04
2019-04-07T19:25:45.721Z,12.96
2019-04-07T19:28:26.460Z,12.91
2019-04-07T19:31:19.538Z,12.83
2019-04-07T19:34:03.870Z,12.80
2019-04-07T19:37:15.583Z,12.77
2019-04-07T19:40:03.002Z,12.74
2019-04-07T19:42:48.217Z,12.65
2019-04-07T19:45:35.551Z,12.62
2019-04-07T19:48:39.036Z,12.53
2019-04-07T19:51:33.956Z,12.44
2019-04-07T19:54:29.248Z,12.32
2019-04-07T19:57:23.780Z,12.20
2019-04-07T20:00:02.722Z,12.13
2019-04-07T20:02:55.753Z,12.07
2019-04-07T20:05:44.008Z,12.03
2019-04-07T20:08:49.353Z,12.02
2019-04-07T20:11:41.656Z,11.98
2019-04-07T20:14:47.568Z,11.90
2019-04-07T20:17:32.478Z,11.85
2019-04-07T20:20:13.642Z,11.81
2019-04-07T20:23:06.394Z,11.78
2019-04-07T20:25:57.381Z,11.76
2019-04-07T20:28:41.232Z,11.76
2019-04-07T20:31:38.696Z,11.72
2019-04-07T20:34:27.455Z,11.68
2019-04-07T20:37:05.769Z,11.65
2019-04-07T20:39:47.713Z,11.60
2019-04-07T20:42:34.745Z,11.53
2019-04-07T20:45:22.709Z,11.49
2019-04-07T20:48:01.850Z,11.49
2019-04-07T20:50:48.824Z,11.47
2019-04-07T20:53:29.048Z,11.46
2019-04-07T20:56:14.673Z,11.45
2019-04-07T20:59:25.281Z,11.41
2019-04-07T21:02:20.818Z,11.38
2019-04-07T21:04:59.303Z,11.33
2019-04-07T21:08:24.288Z,11.32
2019-04-07T21:11:08.203Z,11.32
2019-04-07T21:13:52.467Z,11.26
2019-04-07T21:16:35.507Z,11.16
2019-04-07T21:19:22.872Z,11.14
2019-04-07T21:22:08.820Z,11.10
2019-04-07T21:25:13.507Z,11.06
2019-04-07T21:28:24.635Z,11.05
2019-04-07T21:31:16.081Z,11.02
2019-04-07T21:33:57.765Z,10.98
2019-04-07T21:36:39.317Z,10.92
2019-04-07T21:39:29.431Z,10.85
2019-04-07T21:42:25.395Z,10.79
2019-04-07T21:45:29.093Z,10.66
2019-04-07T21:48:06.195Z,10.55
2019-04-07T21:50:55.318Z,10.43
2019-04-07T21:53:38.106Z,10.32
2019-04-07T21:56:32.773Z,10.21
2019-04-07T21:59:21.524Z,10.06
2019-04-07T22:02:13.576Z,9.96
2019-04-07T22:04:53.219Z,9.84
2019-04-07T22:07:36.312Z,9.75
2019-04-07T22:10:07.410Z,9.72
2019-04-07T22:12:36.645Z,9.70
2019-04-07T22:15:11.644Z,9.70
2019-04-07T22:17:39.328Z,9.69
2019-04-07T22:20:10.476Z,9.61
2019-04-07T22:22:40.772Z,9.54
2019-04-07T22:25:11.490Z,9.53
2019-04-07T22:27:41.074Z,9.54
2019-04-07T22:30:11.680Z,9.57
2019-04-07T22:32:40.990Z,9.61
2019-04-07T22:35:10.620Z,9.60
2019-04-07T22:37:42.870Z,9.57
2019-04-07T22:40:15.697Z,9.50
2019-04-07T22:42:45.974Z,9.42
2019-04-07T22:45:16.189Z,9.36
2019-04-07T22:47:46.649Z,9.35
2019-04-07T22:50:17.009Z,9.36
2019-04-07T22:52:49.184Z,9.30
2019-04-07T22:55:16.986Z,9.21
2019-04-07T22:57:46.040Z,9.11
2019-04-07T23:00:19.688Z,9.01
2019-04-07T23:02:48.834Z,8.95
2019-04-07T23:05:19.081Z,8.87
2019-04-07T23:07:48.377Z,8.76
2019-04-07T23:10:18.548Z,8.72
2019-04-07T23:12:47.996Z,8.69
2019-04-07T23:15:16.908Z,8.66
2019-04-07T23:17:55.755Z,8.61
2019-04-07T23:20:24.864Z,8.59
2019-04-07T23:22:54.227Z,8.55
2019-04-07T23:25:23.356Z,8.49
2019-04-07T23:27:52.294Z,8.45
2019-04-07T23:30:25.851Z,8.39
2019-04-07T23:32:55.678Z,8.31
2019-04-07T23:35:24.981Z,8.25
2019-04-07T23:37:53.921Z,8.22
2019-04-07T23:40:23.750Z,8.19
2019-04-07T23:42:53.070Z,8.14
2019-04-07T23:45:23.168Z,8.10
2019-04-07T23:47:52.554Z,8.08
2019-04-07T23:50:23.122Z,8.06
2019-04-07T23:52:52.218Z,8.04
2019-04-07T23:55:21.918Z,7.97
2019-04-07T23:57:52.166Z,7.87
